HKNW/WIL METAR and TAF weather

Enter ICAO airport designator
Station Type Date Time Source
HKNW METAR 2021/09/28 17:00 UTC NOAA

HKNW 281700Z 13010KT 9999 BKN025 23/12 Q1019


Station Type Date Time Source
HKNW Decoded METAR 2021/09/28 17:00 UTC NOAA

Nairobi / Wilson, Kenya (HKNW) 01-19S 036-49E 1679M
Sep 28, 2021 - 01:00 PM EDT / 2021.09.28 1700 UTC
Wind: from the SE (130 degrees) at 12 MPH (10 KT):0
Visibility: greater than 7 mile(s):0
Sky conditions: mostly cloudy
Temperature: 73 F (23 C)
Dew Point: 53 F (12 C)
Relative Humidity: 49%
Pressure (altimeter): 30.09 in. Hg (1019 hPa)
ob: HKNW 281700Z 13010KT 9999 BKN025 23/12 Q1019
cycle: 17

Station Type Date Time Source
HKNW TAF 2021/09/28 06:15 UTC NOAA

TAF TAF HKNW 280500Z 2806/2906 09010KT 9999 SCT026
BECMG 2820/2823 VRB02KT

Example: see airport list